E/V Nautilus — J8B3605 — position and weather

sailwx.info

Track history (hours):
 
Tides and Currents Weather Stations Pressure Air Temp Water Temp Dewpoint Dewpoint Depression Visibility Wind Speed Wind Dir Waves Ship Positions

Oceanographic research ship E/V Nautilus (St Vincent and the Grenadines)

Ship's website: http://www.nautiluslive.org

Last reported at 2020-Sep-26 19:00 UTC. Time now 2020-Sep-27 06:33 UTC.
Position N 48°22' W 124°57'.

Length 64 m; draft 5 m.

Type: Other ship. MMSI: 376404000.

Date/timePositionNaut miles runAvg speedWind from/ knotsBaromVisibWave heightAir tempDewpointWater temp
2020-Sep-26 19:00N 48°22' W 124°57'23 5.8
2020-Sep-26 14:58N 48°18' W 124°23'0 0.0
2020-Sep-26 10:58N 48°18' W 124°23'0 0.0
2020-Sep-26 09:28N 48°18' W 124°23'0 0.0
2020-Sep-26 07:58N 48°18' W 124°23'0 0.0
2020-Sep-26 07:28N 48°18' W 124°23'0 0.0
2020-Sep-26 06:55N 48°18' W 124°23'0 0.0
2020-Sep-26 06:25N 48°18' W 124°23'0 0.0
2020-Sep-26 05:28N 48°18' W 124°23'0 0.0
2020-Sep-26 00:30N 48°18' W 124°23'0 0.0
2020-Sep-25 23:30N 48°18' W 124°23'0 0.0
2020-Sep-25 20:27N 48°18' W 124°23'0 0.0
2020-Sep-25 19:27N 48°18' W 124°23'0 0.0
2020-Sep-25 14:30N 48°18' W 124°23'0 0.0
2020-Sep-25 14:00N 48°18' W 124°23'0 0.0
2020-Sep-25 13:30N 48°18' W 124°23'0 0.0
2020-Sep-25 08:24N 48°18' W 124°23'0 0.0
2020-Sep-25 07:21N 48°18' W 124°23'0 0.0
2020-Sep-25 06:57N 48°18' W 124°23'0 0.0
2020-Sep-25 05:57N 48°18' W 124°23'0 0.0
2020-Sep-25 04:00N 48°18' W 124°23'0 0.0
2020-Sep-25 00:21N 48°18' W 124°23'0 0.0
2020-Sep-24 17:00N 48°18' W 124°23'0 0.2
2020-Sep-24 16:00N 48°18' W 124°23'0 0.2
2020-Sep-24 15:30N 48°18' W 124°23'0 0.0
2020-Sep-24 14:01N 48°18' W 124°23'0 0.0
2020-Sep-24 07:31N 48°18' W 124°23'0 0.0
2020-Sep-24 06:30N 48°18' W 124°23'0 0.0
2020-Sep-24 05:29N 48°18' W 124°23'0 0.0
2020-Sep-24 03:00N 48°18' W 124°23'0 0.0
2020-Sep-24 02:30N 48°18' W 124°23'0 0.0
2020-Sep-24 01:58N 48°18' W 124°23'0 0.0
2020-Sep-23 21:30N 48°18' W 124°23'0 0.0
2020-Sep-23 20:00N 48°18' W 124°23'0 0.0
2020-Sep-23 19:25N 48°18' W 124°23'0 0.3
2020-Sep-23 19:24N 48°18' W 124°23'0 0.0
2020-Sep-23 18:59N 48°18' W 124°23'0 0.0
2020-Sep-23 15:01N 48°18' W 124°23'0 0.0
2020-Sep-23 14:00N 48°18' W 124°23'1 0.3
2020-Sep-23 12:00N 48°19' W 124°24'10 9.6
2020-Sep-23 11:01N 48°24' W 124°35'510.8
2020-Sep-23 10:31N 48°26' W 124°43'  
2020-Sep-21 00:08N 48°13' W 125°07'1010.2
2020-Sep-20 23:08N 48°23' W 125°08'32 8.9
2020-Sep-20 19:30N 48°24' W 124°19'713.6
2020-Sep-20 19:01N 48°21' W 124°09'1413.9
2020-Sep-20 18:00N 48°17' W 123°49'714.4
2020-Sep-20 17:30N 48°16' W 123°39'714.5
2020-Sep-20 17:00N 48°14' W 123°28'612.2
2020-Sep-20 16:31N 48°09' W 123°24'2 4.4
2020-Sep-20 15:58N 48°08' W 123°27'0 0.0
2020-Sep-20 14:25N 48°08' W 123°27'0 0.0
2020-Sep-20 12:25N 48°08' W 123°27'0 0.0
2020-Sep-20 11:55N 48°08' W 123°27'0 0.0
2020-Sep-20 11:28N 48°08' W 123°27'0 0.0
2020-Sep-20 10:28N 48°08' W 123°27'0 0.0
2020-Sep-20 08:25N 48°08' W 123°27'0 0.0
2020-Sep-20 06:55N 48°08' W 123°27'0 0.0
2020-Sep-20 05:58N 48°08' W 123°27'0 0.0
2020-Sep-20 00:00N 48°08' W 123°27'0 0.0
2020-Sep-19 20:30N 48°08' W 123°27'0 0.0
2020-Sep-19 19:00N 48°08' W 123°27'0 0.0
2020-Sep-19 17:30N 48°08' W 123°27'0 0.0
2020-Sep-19 16:30N 48°08' W 123°27'0 0.0
2020-Sep-19 14:00N 48°08' W 123°27'0 0.0
2020-Sep-19 11:00N 48°08' W 123°27'0 0.0
2020-Sep-19 10:00N 48°08' W 123°27'0 0.0
2020-Sep-19 07:30N 48°08' W 123°27'0 0.0
2020-Sep-19 07:00N 48°08' W 123°27'0 0.0
2020-Sep-19 05:00N 48°08' W 123°27'0 0.0
2020-Sep-19 04:30N 48°08' W 123°27'13 6.4
2020-Sep-19 02:30N 48°20' W 123°26'10 9.9
2020-Sep-19 01:30N 48°25' W 123°13'20 9.8
2020-Sep-18 23:30N 48°43' W 123°24'4 4.2
2020-Sep-18 22:30N 48°39' W 123°27'0 0.0
2020-Sep-18 20:00N 48°39' W 123°27'0 0.0
2020-Sep-18 19:00N 48°39' W 123°27'0 0.0
2020-Sep-18 18:00N 48°39' W 123°27'0 0.0
2020-Sep-18 15:00N 48°39' W 123°27'1 0.4
2020-Sep-18 13:30N 48°39' W 123°28'14 4.6
2020-Sep-18 10:30N 48°31' W 123°11'27 8.9
2020-Sep-18 07:30N 48°13' W 123°40'510.9
2020-Sep-18 07:00N 48°13' W 123°49'2211.3
2020-Sep-18 05:00N 48°21' W 124°20'2010.0
2020-Sep-18 02:59N 48°28' W 124°49'1811.8
2020-Sep-18 01:29N 48°28' W 125°16'712.4
2020-Sep-18 00:56N 48°28' W 125°26'30 3.7
2020-Sep-17 16:52N 48°26' W 126°11'  
Track history (hours):
 
Tides and Currents Weather Stations Pressure Air Temp Water Temp Dewpoint Dewpoint Depression Visibility Wind Speed Wind Dir Waves Ship Positions

Oceanographic research ship E/V Nautilus (St Vincent and the Grenadines)

Ship's website: http://www.nautiluslive.org

Last reported at 2020-Sep-26 19:00 UTC. Time now 2020-Sep-27 06:33 UTC.
Position N 48°22' W 124°57'.

Length 64 m; draft 5 m.

Type: Other ship. MMSI: 376404000.

Date/timePositionNaut miles runAvg speedWind from/ knotsBaromVisibWave heightAir tempDewpointWater temp
2020-Sep-26 19:00N 48°22' W 124°57'23 5.8
2020-Sep-26 14:58N 48°18' W 124°23'0 0.0
2020-Sep-26 10:58N 48°18' W 124°23'0 0.0
2020-Sep-26 09:28N 48°18' W 124°23'0 0.0
2020-Sep-26 07:58N 48°18' W 124°23'0 0.0
2020-Sep-26 07:28N 48°18' W 124°23'0 0.0
2020-Sep-26 06:55N 48°18' W 124°23'0 0.0
2020-Sep-26 06:25N 48°18' W 124°23'0 0.0
2020-Sep-26 05:28N 48°18' W 124°23'0 0.0
2020-Sep-26 00:30N 48°18' W 124°23'0 0.0
2020-Sep-25 23:30N 48°18' W 124°23'0 0.0
2020-Sep-25 20:27N 48°18' W 124°23'0 0.0
2020-Sep-25 19:27N 48°18' W 124°23'0 0.0
2020-Sep-25 14:30N 48°18' W 124°23'0 0.0
2020-Sep-25 14:00N 48°18' W 124°23'0 0.0
2020-Sep-25 13:30N 48°18' W 124°23'0 0.0
2020-Sep-25 08:24N 48°18' W 124°23'0 0.0
2020-Sep-25 07:21N 48°18' W 124°23'0 0.0
2020-Sep-25 06:57N 48°18' W 124°23'0 0.0
2020-Sep-25 05:57N 48°18' W 124°23'0 0.0
2020-Sep-25 04:00N 48°18' W 124°23'0 0.0
2020-Sep-25 00:21N 48°18' W 124°23'0 0.0
2020-Sep-24 17:00N 48°18' W 124°23'0 0.2
2020-Sep-24 16:00N 48°18' W 124°23'0 0.2
2020-Sep-24 15:30N 48°18' W 124°23'0 0.0
2020-Sep-24 14:01N 48°18' W 124°23'0 0.0
2020-Sep-24 07:31N 48°18' W 124°23'0 0.0
2020-Sep-24 06:30N 48°18' W 124°23'0 0.0
2020-Sep-24 05:29N 48°18' W 124°23'0 0.0
2020-Sep-24 03:00N 48°18' W 124°23'0 0.0
2020-Sep-24 02:30N 48°18' W 124°23'0 0.0
2020-Sep-24 01:58N 48°18' W 124°23'0 0.0
2020-Sep-23 21:30N 48°18' W 124°23'0 0.0
2020-Sep-23 20:00N 48°18' W 124°23'0 0.0
2020-Sep-23 19:25N 48°18' W 124°23'0 0.3
2020-Sep-23 19:24N 48°18' W 124°23'0 0.0
2020-Sep-23 18:59N 48°18' W 124°23'0 0.0
2020-Sep-23 15:01N 48°18' W 124°23'0 0.0
2020-Sep-23 14:00N 48°18' W 124°23'1 0.3
2020-Sep-23 12:00N 48°19' W 124°24'10 9.6
2020-Sep-23 11:01N 48°24' W 124°35'510.8
2020-Sep-23 10:31N 48°26' W 124°43'  
2020-Sep-21 00:08N 48°13' W 125°07'1010.2
2020-Sep-20 23:08N 48°23' W 125°08'32 8.9
2020-Sep-20 19:30N 48°24' W 124°19'713.6
2020-Sep-20 19:01N 48°21' W 124°09'1413.9
2020-Sep-20 18:00N 48°17' W 123°49'714.4
2020-Sep-20 17:30N 48°16' W 123°39'714.5
2020-Sep-20 17:00N 48°14' W 123°28'612.2
2020-Sep-20 16:31N 48°09' W 123°24'2 4.4
2020-Sep-20 15:58N 48°08' W 123°27'0 0.0
2020-Sep-20 14:25N 48°08' W 123°27'0 0.0
2020-Sep-20 12:25N 48°08' W 123°27'0 0.0
2020-Sep-20 11:55N 48°08' W 123°27'0 0.0
2020-Sep-20 11:28N 48°08' W 123°27'0 0.0
2020-Sep-20 10:28N 48°08' W 123°27'0 0.0
2020-Sep-20 08:25N 48°08' W 123°27'0 0.0
2020-Sep-20 06:55N 48°08' W 123°27'0 0.0
2020-Sep-20 05:58N 48°08' W 123°27'0 0.0
2020-Sep-20 00:00N 48°08' W 123°27'0 0.0
2020-Sep-19 20:30N 48°08' W 123°27'0 0.0
2020-Sep-19 19:00N 48°08' W 123°27'0 0.0
2020-Sep-19 17:30N 48°08' W 123°27'0 0.0
2020-Sep-19 16:30N 48°08' W 123°27'0 0.0
2020-Sep-19 14:00N 48°08' W 123°27'0 0.0
2020-Sep-19 11:00N 48°08' W 123°27'0 0.0
2020-Sep-19 10:00N 48°08' W 123°27'0 0.0
2020-Sep-19 07:30N 48°08' W 123°27'0 0.0
2020-Sep-19 07:00N 48°08' W 123°27'0 0.0
2020-Sep-19 05:00N 48°08' W 123°27'0 0.0
2020-Sep-19 04:30N 48°08' W 123°27'13 6.4
2020-Sep-19 02:30N 48°20' W 123°26'10 9.9
2020-Sep-19 01:30N 48°25' W 123°13'20 9.8
2020-Sep-18 23:30N 48°43' W 123°24'4 4.2
2020-Sep-18 22:30N 48°39' W 123°27'0 0.0
2020-Sep-18 20:00N 48°39' W 123°27'0 0.0
2020-Sep-18 19:00N 48°39' W 123°27'0 0.0
2020-Sep-18 18:00N 48°39' W 123°27'0 0.0
2020-Sep-18 15:00N 48°39' W 123°27'1 0.4
2020-Sep-18 13:30N 48°39' W 123°28'14 4.6
2020-Sep-18 10:30N 48°31' W 123°11'27 8.9
2020-Sep-18 07:30N 48°13' W 123°40'510.9
2020-Sep-18 07:00N 48°13' W 123°49'2211.3
2020-Sep-18 05:00N 48°21' W 124°20'2010.0
2020-Sep-18 02:59N 48°28' W 124°49'1811.8
2020-Sep-18 01:29N 48°28' W 125°16'712.4
2020-Sep-18 00:56N 48°28' W 125°26'30 3.7
2020-Sep-17 16:52N 48°26' W 126°11'  

Dump ship's entire track history